Time;durP1;ratioP1;P1;durP2;ratioP2;P2;SDS_P1;SDS_P2;PMS_P1;PMS_P2;Temp;Humidity;BMP_temperature;BMP_pressure;BME280_temperature;BME280_humidity;BME280_pressure;Samples;Min_cycle;Max_cycle;Signal;HPM_P1;HPM_P2
2021/12/09 00:24:02;;;;;;;5.90;2.55;;;;;;;17.09;50.61;100085.56;5607527;23;20031;-83
2021/12/09 00:30:47;;;;;;;7.68;2.60;;;;;;;17.07;50.46;100077.78;4999350;28;20074;-83
2021/12/09 00:47:36;;;;;;;5.60;2.70;;;;;;;17.05;50.45;100085.63;4997228;28;20637;-82
2021/12/09 01:04:18;;;;;;;5.93;2.53;;;;;;;17.03;50.51;100095.19;5002426;28;20058;-82
2021/12/09 01:16:59;;;;;;;4.57;2.40;;;;;;;17.01;50.12;100086.56;4999154;28;20046;-82
2021/12/09 01:23:02;;;;;;;4.35;2.67;;;;;;;16.98;50.24;100083.16;4998725;28;20041;-82
2021/12/09 01:41:46;;;;;;;4.22;2.20;;;;;;;16.97;50.13;100102.25;4939524;29;20027;-82
2021/12/09 03:05:39;;;;;;;5.10;2.25;;;;;;;16.93;50.50;100095.38;5384720;23;20047;-83
2021/12/09 03:08:43;;;;;;;4.78;2.45;;;;;;;16.93;50.53;100092.78;4996570;28;20074;-82
2021/12/09 03:30:24;;;;;;;4.50;2.00;;;;;;;16.89;50.56;100096.31;5135021;23;20481;-80
2021/12/09 05:18:44;;;;;;;3.38;1.95;;;;;;;16.81;50.27;100156.22;5121229;23;20042;-82
2021/12/09 05:21:12;;;;;;;3.70;1.90;;;;;;;16.80;50.42;100159.72;4966851;29;20048;-79
2021/12/09 05:24:16;;;;;;;3.97;2.20;;;;;;;16.82;50.43;100170.94;4973467;29;20062;-82
2021/12/09 05:26:50;;;;;;;3.92;1.98;;;;;;;16.82;50.50;100158.78;4947741;29;20035;-80
2021/12/09 05:29:17;;;;;;;4.30;2.00;;;;;;;16.81;50.44;100154.50;4962982;29;20541;-79
2021/12/09 05:34:28;;;;;;;5.00;2.17;;;;;;;16.84;50.63;100156.19;4948671;29;20058;-79
2021/12/09 05:36:53;;;;;;;3.38;2.10;;;;;;;16.83;50.82;100149.25;4943286;29;20046;-79
2021/12/09 05:39:19;;;;;;;3.70;1.63;;;;;;;16.85;50.70;100156.16;4924412;29;20054;-79
2021/12/09 05:41:45;;;;;;;3.38;1.92;;;;;;;16.85;50.80;100158.75;4940268;29;20035;-79
2021/12/09 05:44:13;;;;;;;4.10;1.67;;;;;;;16.85;50.68;100150.97;4925454;29;20549;-79
2021/12/09 05:46:44;;;;;;;4.32;1.90;;;;;;;16.85;50.77;100156.16;4925804;29;20078;-78
2021/12/09 05:49:10;;;;;;;3.30;1.70;;;;;;;16.87;50.79;100158.72;4942498;29;20035;-78
2021/12/09 05:51:37;;;;;;;3.47;1.90;;;;;;;16.87;50.48;100158.72;4960570;29;20165;-78
2021/12/09 05:54:03;;;;;;;3.20;1.73;;;;;;;16.88;50.79;100159.59;4958801;29;20039;-78
2021/12/09 05:56:28;;;;;;;3.63;1.90;;;;;;;16.87;50.83;100156.13;4926711;29;20508;-78
2021/12/09 05:59:18;;;;;;;4.97;2.15;;;;;;;16.85;50.71;100163.97;4958757;29;20075;-84
2021/12/09 06:06:05;;;;;;;4.57;1.98;;;;;;;16.85;50.71;100166.56;4109227;26;20052;-85
2021/12/09 06:14:54;;;;;;;14.93;4.60;;;;;;;17.10;51.00;100180.88;5088520;23;20063;-80
2021/12/09 06:17:20;;;;;;;12.85;4.32;;;;;;;17.01;51.16;100182.72;4988521;28;20048;-79
2021/12/09 06:20:24;;;;;;;12.27;4.07;;;;;;;16.96;51.39;100186.28;4988914;28;20117;-82
2021/12/09 06:22:57;;;;;;;9.85;4.30;;;;;;;16.91;51.37;100186.38;4980158;28;20549;-81
2021/12/09 06:25:26;;;;;;;11.90;3.78;;;;;;;16.90;51.47;100186.38;4978549;28;20042;-79
2021/12/09 06:27:54;;;;;;;12.32;3.90;;;;;;;16.87;51.56;100176.91;4976501;28;20166;-80
2021/12/09 06:30:21;;;;;;;13.30;3.70;;;;;;;16.86;51.31;100178.66;4962368;28;20476;-80
2021/12/09 06:32:46;;;;;;;11.05;4.00;;;;;;;16.86;51.38;100183.84;4977406;28;20031;-80
2021/12/09 06:35:12;;;;;;;8.13;3.50;;;;;;;16.85;51.40;100178.66;4983081;28;20125;-81
2021/12/09 06:37:40;;;;;;;8.07;3.50;;;;;;;16.84;51.29;100172.63;4980699;28;20062;-80
2021/12/09 06:40:08;;;;;;;9.23;3.88;;;;;;;16.85;51.37;100174.34;4982116;28;20081;-80
2021/12/09 06:42:34;;;;;;;6.78;3.33;;;;;;;16.85;51.44;100170.88;4977588;28;20135;-80
2021/12/09 06:44:59;;;;;;;7.40;3.60;;;;;;;16.84;51.21;100170.03;4979522;28;20078;-80
2021/12/09 06:47:24;;;;;;;7.72;3.40;;;;;;;16.84;51.45;100169.19;4968393;28;20038;-80
2021/12/09 06:49:50;;;;;;;9.98;3.55;;;;;;;16.83;51.46;100181.31;4977306;28;20035;-80
2021/12/09 06:52:16;;;;;;;7.47;3.17;;;;;;;16.84;51.42;100174.38;4991810;28;20481;-81
2021/12/09 06:54:42;;;;;;;8.07;3.47;;;;;;;16.84;51.34;100177.81;4993494;28;20031;-81
2021/12/09 06:57:08;;;;;;;8.65;3.50;;;;;;;16.82;51.28;100166.59;4991577;28;20058;-80
2021/12/09 06:59:34;;;;;;;7.70;3.53;;;;;;;16.83;51.50;100178.72;4969361;28;20082;-80
2021/12/09 07:02:00;;;;;;;6.32;3.15;;;;;;;16.83;51.47;100183.91;4983706;28;20035;-80
2021/12/09 07:04:25;;;;;;;10.40;3.15;;;;;;;16.83;51.39;100188.22;4985121;28;20039;-81
2021/12/09 07:06:51;;;;;;;7.53;3.20;;;;;;;16.83;51.38;100196.91;4970682;28;20041;-79
2021/12/09 07:09:16;;;;;;;6.22;3.05;;;;;;;16.84;51.27;100193.41;4968718;28;20046;-80
2021/12/09 07:11:47;;;;;;;6.45;2.70;;;;;;;16.86;51.43;100198.59;4967321;28;20110;-80
2021/12/09 07:14:17;;;;;;;9.35;3.15;;;;;;;16.84;51.17;100190.81;4982675;28;20563;-80
2021/12/09 07:16:42;;;;;;;5.50;2.92;;;;;;;16.84;51.20;100197.75;4983032;28;20066;-81
2021/12/09 10:32:14;;;;;;;10.13;4.47;;;;;;;17.44;51.84;100257.38;5011162;23;20105;-79
2021/12/09 10:34:49;;;;;;;12.10;4.50;;;;;;;17.44;51.93;100257.38;4983509;28;20039;-82
2021/12/09 10:37:48;;;;;;;12.70;4.00;;;;;;;17.42;51.71;100269.56;4986452;28;20058;-82
2021/12/09 10:40:19;;;;;;;9.57;4.10;;;;;;;17.40;51.57;100262.69;4991691;28;20118;-80
2021/12/09 10:42:51;;;;;;;9.23;4.45;;;;;;;17.41;51.45;100254.81;4982932;28;20089;-79
2021/12/09 10:45:28;;;;;;;15.40;5.10;;;;;;;17.40;51.24;100249.66;4980554;28;20041;-80
2021/12/09 10:48:16;;;;;;;12.07;4.43;;;;;;;17.40;51.24;100252.28;4979972;28;20134;-79
2021/12/09 10:50:48;;;;;;;10.45;4.55;;;;;;;17.38;51.14;100247.09;4979513;28;20491;-79
2021/12/09 10:53:58;;;;;;;9.90;4.28;;;;;;;17.45;51.00;100240.03;4958644;28;20053;-82
2021/12/09 10:57:11;;;;;;;8.10;4.20;;;;;;;17.48;50.80;100243.44;4957555;29;20142;-81
2021/12/09 10:59:57;;;;;;;9.30;4.00;;;;;;;17.46;50.77;100239.13;4953129;29;20110;-81
2021/12/09 11:02:24;;;;;;;10.30;4.00;;;;;;;17.45;51.00;100235.69;4904996;29;20339;-80
2021/12/09 11:44:32;;;;;;;7.90;3.65;;;;;;;17.41;50.33;100218.41;5068003;23;20052;-79
2021/12/09 11:47:00;;;;;;;6.35;3.45;;;;;;;17.43;50.20;100223.59;4989852;28;20105;-80
2021/12/09 12:41:24;;;;;;;6.90;3.80;;;;;;;17.28;49.95;100217.78;4958978;29;20088;-83
2021/12/09 12:51:03;;;;;;;5.85;3.53;;;;;;;17.22;49.59;100223.09;4960735;28;20129;-84
2021/12/09 12:54:10;;;;;;;4.68;3.70;;;;;;;17.27;49.81;100220.41;4942608;29;20044;-84
2021/12/09 13:00:47;;;;;;;5.47;3.88;;;;;;;17.30;49.44;100215.16;4960800;28;20046;-82
2021/12/09 15:03:41;;;;;;;5.38;3.08;;;;;;;17.20;49.56;100192.78;5019226;23;20141;-79
2021/12/09 15:06:18;;;;;;;4.70;3.13;;;;;;;17.20;49.33;100179.78;4980542;28;20046;-78
2021/12/09 15:08:51;;;;;;;3.95;3.00;;;;;;;17.20;49.50;100180.66;4981639;28;20034;-79
2021/12/09 15:11:18;;;;;;;4.22;3.10;;;;;;;17.20;49.36;100177.19;4997532;28;20121;-80
2021/12/09 15:13:51;;;;;;;4.65;3.05;;;;;;;17.21;49.20;100184.97;4964743;28;20034;-80
2021/12/09 15:16:20;;;;;;;3.88;3.00;;;;;;;17.22;49.22;100180.63;5002160;28;20030;-79
2021/12/09 15:18:46;;;;;;;3.92;2.90;;;;;;;17.22;49.42;100178.03;4987195;28;20030;-78
2021/12/09 15:21:21;;;;;;;4.88;3.10;;;;;;;17.22;49.30;100171.09;4985125;28;20046;-78
2021/12/09 16:09:29;;;;;;;4.28;3.15;;;;;;;17.33;48.84;100165.66;6022095;23;20853;-82
2021/12/09 16:12:08;;;;;;;3.67;2.67;;;;;;;17.35;49.14;100168.25;4973054;28;20055;-85
2021/12/09 16:51:27;;;;;;;5.03;3.00;;;;;;;17.40;48.89;100154.28;4191113;26;20054;-79
2021/12/09 16:53:59;;;;;;;5.28;2.83;;;;;;;17.42;48.93;100159.44;4941685;29;20047;-79
2021/12/09 16:59:02;;;;;;;3.65;2.85;;;;;;;17.38;48.96;100157.81;4968979;29;20031;-81
2021/12/09 17:01:39;;;;;;;3.88;2.83;;;;;;;17.32;49.15;100165.72;4952579;29;20062;-80
2021/12/09 17:04:08;;;;;;;5.75;2.95;;;;;;;17.29;49.20;100174.44;5080156;23;20063;-78
2021/12/09 17:07:45;;;;;;;3.88;2.80;;;;;;;17.26;49.31;100171.88;4995665;28;20045;-82
2021/12/09 17:16:39;;;;;;;4.07;2.72;;;;;;;17.20;49.42;100167.66;5098200;23;20050;-82
2021/12/09 17:19:08;;;;;;;5.13;2.75;;;;;;;17.20;49.25;100164.19;5011265;28;20046;-82
2021/12/09 17:21:37;;;;;;;3.67;2.63;;;;;;;17.19;49.13;100159.88;4990117;28;20404;-82
2021/12/09 18:44:52;;;;;;;3.08;2.10;;;;;;;17.25;49.59;100144.19;5036567;23;20102;-79
2021/12/09 19:04:08;;;;;;;3.90;2.78;;;;;;;17.25;50.14;100134.63;4957670;28;20049;-82
2021/12/09 19:06:35;;;;;;;6.00;2.70;;;;;;;17.25;50.10;100137.22;5000187;28;20049;-80
2021/12/09 19:09:02;;;;;;;3.90;2.60;;;;;;;17.24;50.24;100121.66;4974173;28;20038;-79
2021/12/09 19:15:35;;;;;;;3.83;2.80;;;;;;;17.25;50.08;100118.19;5010444;28;20069;-81
2021/12/09 19:18:26;;;;;;;6.45;2.80;;;;;;;17.24;49.95;100111.25;5008740;28;20536;-80
2021/12/09 19:21:14;;;;;;;3.83;2.72;;;;;;;17.25;50.10;100110.38;5016759;28;20021;-82
2021/12/09 19:30:32;;;;;;;5.05;2.78;;;;;;;17.24;50.27;100095.66;5013096;28;20129;-80
2021/12/09 19:33:09;;;;;;;4.05;2.50;;;;;;;17.26;50.46;100092.13;4995555;28;20034;-81
2021/12/09 19:35:38;;;;;;;4.28;2.70;;;;;;;17.25;50.85;100082.63;4983357;28;20125;-82
2021/12/09 19:50:00;;;;;;;;;;;;;;;;;;;;;
2021/12/09 19:52:43;;;;;;;3.97;2.67;;;;;;;17.26;51.21;100058.31;5016009;28;20074;-81
2021/12/09 19:58:05;;;;;;;4.30;2.60;;;;;;;17.27;51.03;100054.00;4103607;26;20138;-82
2021/12/09 20:01:12;;;;;;;3.97;2.58;;;;;;;17.27;51.32;100044.44;4977492;29;20051;-82
2021/12/09 20:07:24;;;;;;;;;;;;;;;;;;;;;
2021/12/09 20:09:52;;;;;;;4.05;2.17;;;;;;;17.26;51.60;100037.50;4920493;29;20635;-81
2021/12/09 20:12:23;;;;;;;4.70;2.63;;;;;;;17.26;51.53;100036.66;4913023;29;20068;-81
2021/12/09 20:14:51;;;;;;;3.83;2.55;;;;;;;17.26;51.51;100037.50;4938064;29;20092;-80
2021/12/09 20:17:17;;;;;;;3.85;2.53;;;;;;;17.28;51.40;100025.34;4908663;29;20044;-80
2021/12/09 20:19:42;;;;;;;3.13;2.58;;;;;;;17.27;51.39;100020.19;4909969;29;20040;-80
2021/12/09 20:22:21;;;;;;;4.20;2.70;;;;;;;17.26;51.45;100013.25;4913043;29;20091;-81
2021/12/09 20:24:51;;;;;;;3.08;2.20;;;;;;;17.27;51.71;100015.00;5087451;23;20039;-81
2021/12/09 22:11:46;;;;;;;5.20;3.40;;;;;;;17.22;52.08;99889.41;6024891;23;21720;-82
